createdAt,value
2023-11-07T00:04:26.206Z,16.32
2023-11-07T00:09:19.283Z,16.07
2023-11-07T00:14:12.398Z,15.73
2023-11-07T00:19:07.097Z,15.45
2023-11-07T00:24:01.967Z,15.22
2023-11-07T00:28:54.987Z,15.04
2023-11-07T00:33:48.223Z,14.87
2023-11-07T00:38:41.283Z,14.67
2023-11-07T00:43:37.031Z,14.47
2023-11-07T00:48:30.261Z,14.32
2023-11-07T00:53:24.424Z,14.15
2023-11-07T00:58:21.877Z,14.00
2023-11-07T01:03:16.428Z,13.92
2023-11-07T01:08:09.568Z,13.82
2023-11-07T01:13:02.638Z,13.77
2023-11-07T01:17:55.802Z,13.71
2023-11-07T01:22:51.275Z,13.64
2023-11-07T01:27:46.700Z,13.60
2023-11-07T01:32:40.830Z,13.56
2023-11-07T01:37:34.070Z,13.44
2023-11-07T01:42:28.422Z,13.38
2023-11-07T01:47:24.355Z,13.26
2023-11-07T01:52:19.030Z,13.19
2023-11-07T01:57:12.649Z,13.07
2023-11-07T02:02:11.408Z,12.89
2023-11-07T02:07:04.682Z,12.71
2023-11-07T02:11:57.726Z,12.62
2023-11-07T02:16:50.761Z,12.59
2023-11-07T02:21:45.987Z,12.58
2023-11-07T02:26:40.488Z,12.58
2023-11-07T02:31:33.483Z,12.59
2023-11-07T02:36:26.520Z,12.47
2023-11-07T02:41:19.521Z,12.40
2023-11-07T02:46:13.955Z,12.27
2023-11-07T02:51:07.240Z,12.14
2023-11-07T02:56:00.309Z,12.07
2023-11-07T03:00:53.530Z,11.99
2023-11-07T03:05:48.441Z,11.89
2023-11-07T03:10:41.510Z,11.81
2023-11-07T03:15:34.635Z,11.80
2023-11-07T03:20:28.609Z,11.77
2023-11-07T03:25:23.096Z,11.72
2023-11-07T03:30:16.151Z,11.64
2023-11-07T03:35:10.207Z,11.61
2023-11-07T03:40:04.464Z,11.51
2023-11-07T03:44:58.987Z,11.41
2023-11-07T03:49:52.065Z,11.28
2023-11-07T03:54:45.284Z,11.25
2023-11-07T03:59:38.348Z,11.14
2023-11-07T04:04:32.859Z,11.07
2023-11-07T04:09:25.847Z,11.01
2023-11-07T04:14:19.842Z,10.96
2023-11-07T04:19:12.914Z,11.01
2023-11-07T04:24:07.981Z,11.07
2023-11-07T04:29:01.021Z,11.12
2023-11-07T04:33:54.106Z,11.07
2023-11-07T04:38:47.339Z,10.97
2023-11-07T04:43:41.761Z,10.92
2023-11-07T04:48:35.027Z,10.86
2023-11-07T04:53:29.332Z,10.86
2023-11-07T04:58:22.477Z,10.86
2023-11-07T05:03:17.609Z,10.91
2023-11-07T05:08:10.773Z,10.85
2023-11-07T05:13:03.916Z,10.83
2023-11-07T05:17:57.160Z,10.81
2023-11-07T05:22:51.816Z,10.76
2023-11-07T05:27:44.882Z,10.79
2023-11-07T05:32:37.933Z,10.78
2023-11-07T05:37:31.132Z,10.83
2023-11-07T05:42:25.567Z,10.82
2023-11-07T05:47:18.698Z,10.90
2023-11-07T05:52:11.886Z,10.98
2023-11-07T05:57:05.264Z,11.06
2023-11-07T06:01:59.870Z,11.09
2023-11-07T06:06:53.752Z,11.03
2023-11-07T06:11:46.847Z,11.04
2023-11-07T06:16:42.182Z,11.05
2023-11-07T06:21:36.848Z,11.13
2023-11-07T06:26:29.879Z,11.24
2023-11-07T06:31:26.348Z,11.40
2023-11-07T06:36:19.587Z,11.58
2023-11-07T06:41:14.288Z,11.75
2023-11-07T06:46:07.960Z,11.94
2023-11-07T06:51:03.423Z,12.07
2023-11-07T06:55:56.557Z,12.28
2023-11-07T07:00:51.349Z,12.46
2023-11-07T07:05:44.409Z,12.62
2023-11-07T07:10:38.648Z,12.87
2023-11-07T07:15:31.595Z,13.09
2023-11-07T07:20:30.548Z,13.27
2023-11-07T07:25:28.318Z,13.49
2023-11-07T07:30:23.618Z,13.74
2023-11-07T07:35:17.184Z,14.09
2023-11-07T07:40:15.961Z,14.48
2023-11-07T07:45:09.661Z,14.87
2023-11-07T07:50:02.698Z,15.24
2023-11-07T07:55:09.405Z,15.64
2023-11-07T08:00:13.407Z,16.01
2023-11-07T08:05:07.696Z,16.37
2023-11-07T08:10:00.766Z,16.80
2023-11-07T08:14:54.507Z,17.14
2023-11-07T08:19:50.629Z,17.43
2023-11-07T08:24:43.823Z,17.68
2023-11-07T08:29:36.727Z,17.97
2023-11-07T08:34:34.190Z,18.24
2023-11-07T08:39:30.109Z,18.57
2023-11-07T08:44:23.291Z,18.83
2023-11-07T08:49:17.724Z,19.07
2023-11-07T08:54:10.928Z,19.39
2023-11-07T08:59:05.440Z,19.92
2023-11-07T09:03:58.615Z,20.76
2023-11-07T09:08:51.791Z,21.62
2023-11-07T09:13:44.847Z,22.43
2023-11-07T09:18:39.640Z,22.92
2023-11-07T09:23:33.502Z,23.16
2023-11-07T09:28:26.744Z,23.32
2023-11-07T09:33:20.677Z,23.24
2023-11-07T09:38:15.553Z,23.02
2023-11-07T09:43:08.616Z,22.92
2023-11-07T09:48:01.927Z,22.92
2023-11-07T09:52:56.468Z,23.05
2023-11-07T09:58:05.167Z,23.06
2023-11-07T10:03:09.881Z,22.95
2023-11-07T10:08:02.951Z,22.80
2023-11-07T10:13:08.108Z,22.72
2023-11-07T10:18:02.449Z,22.71
2023-11-07T10:22:57.452Z,22.79
2023-11-07T10:27:55.052Z,22.87
2023-11-07T10:32:55.186Z,22.79
2023-11-07T10:37:48.207Z,22.77
2023-11-07T10:42:47.035Z,22.84
2023-11-07T10:47:41.058Z,22.75
2023-11-07T10:52:35.699Z,22.67
2023-11-07T10:57:32.502Z,22.65
2023-11-07T11:02:28.780Z,22.76
2023-11-07T11:07:22.612Z,22.88
2023-11-07T11:12:19.807Z,22.93
2023-11-07T11:17:20.420Z,22.92
2023-11-07T11:22:20.392Z,22.90
2023-11-07T11:27:15.802Z,22.91
2023-11-07T11:32:23.684Z,22.84
2023-11-07T11:37:18.032Z,22.72
2023-11-07T11:42:12.937Z,22.60
2023-11-07T11:47:10.709Z,22.50
2023-11-07T11:52:08.386Z,22.42
2023-11-07T11:57:07.525Z,22.38
2023-11-07T12:02:04.950Z,22.30
2023-11-07T12:07:18.808Z,22.20
2023-11-07T12:12:14.601Z,22.18
2023-11-07T12:17:07.661Z,22.23
2023-11-07T12:22:00.788Z,22.28
2023-11-07T12:26:53.913Z,22.35
2023-11-07T12:31:56.761Z,22.40
2023-11-07T12:36:50.327Z,22.50
2023-11-07T12:41:43.409Z,22.52
2023-11-07T12:46:36.641Z,22.51
2023-11-07T12:51:32.366Z,22.38
2023-11-07T12:56:27.114Z,22.29
2023-11-07T13:01:25.283Z,22.23
2023-11-07T13:06:21.523Z,22.12
2023-11-07T13:11:17.190Z,22.07
2023-11-07T13:16:10.450Z,22.03
2023-11-07T13:21:04.351Z,21.98
2023-11-07T13:25:57.888Z,21.92
2023-11-07T13:30:53.928Z,21.86
2023-11-07T13:35:53.121Z,21.79
2023-11-07T13:40:46.774Z,21.72
2023-11-07T13:45:40.181Z,21.64
2023-11-07T13:50:35.030Z,21.55
2023-11-07T13:55:28.765Z,21.43
2023-11-07T14:00:22.490Z,21.37
2023-11-07T14:05:16.352Z,21.29
2023-11-07T14:10:14.792Z,21.16
2023-11-07T14:15:11.214Z,21.07
2023-11-07T14:20:11.295Z,20.94
2023-11-07T14:25:05.180Z,20.86
2023-11-07T14:30:14.681Z,20.77
2023-11-07T14:35:17.255Z,20.63
2023-11-07T14:40:13.650Z,20.47
2023-11-07T14:45:10.638Z,20.30
2023-11-07T14:50:04.177Z,20.10
2023-11-07T14:54:57.197Z,19.99
2023-11-07T14:59:50.322Z,19.80
2023-11-07T15:04:44.980Z,19.62
2023-11-07T15:09:38.039Z,19.46
2023-11-07T15:14:31.166Z,19.29
2023-11-07T15:19:24.389Z,19.09
2023-11-07T15:24:21.110Z,18.90
2023-11-07T15:29:14.430Z,18.73
2023-11-07T15:34:07.698Z,18.62
2023-11-07T15:39:00.960Z,18.50
2023-11-07T15:43:57.050Z,18.40
2023-11-07T15:48:50.216Z,18.33
2023-11-07T15:53:43.407Z,18.22
2023-11-07T15:58:36.903Z,18.14
2023-11-07T16:03:31.557Z,18.09
2023-11-07T16:08:27.229Z,18.04
2023-11-07T16:13:21.073Z,17.98
2023-11-07T16:18:14.324Z,17.94
2023-11-07T16:23:10.635Z,17.91
2023-11-07T16:28:06.883Z,17.84
2023-11-07T16:33:00.230Z,17.78
2023-11-07T16:37:53.442Z,17.69
2023-11-07T16:42:49.813Z,17.54
2023-11-07T16:47:43.249Z,17.36
2023-11-07T16:52:36.603Z,17.17
2023-11-07T16:57:29.955Z,17.04
2023-11-07T17:02:24.992Z,16.91
2023-11-07T17:07:18.253Z,16.84
2023-11-07T17:12:11.613Z,16.79
2023-11-07T17:17:06.649Z,16.81
2023-11-07T17:22:01.357Z,16.83
2023-11-07T17:26:54.547Z,16.79
2023-11-07T17:31:47.851Z,16.67
2023-11-07T17:36:40.949Z,16.53
2023-11-07T17:41:36.553Z,16.37
2023-11-07T17:46:30.178Z,16.26
2023-11-07T17:51:24.375Z,16.19
2023-11-07T17:56:17.624Z,16.06
2023-11-07T18:01:15.682Z,15.91
2023-11-07T18:06:10.661Z,15.76
2023-11-07T18:11:04.015Z,15.62
2023-11-07T18:15:58.081Z,15.50
2023-11-07T18:20:52.981Z,15.40
2023-11-07T18:25:48.370Z,15.31
2023-11-07T18:30:41.481Z,15.20
2023-11-07T18:35:34.649Z,15.12
2023-11-07T18:40:29.210Z,15.05
2023-11-07T18:45:22.376Z,14.97
2023-11-07T18:50:16.776Z,14.92
2023-11-07T18:55:10.943Z,14.87
2023-11-07T19:00:08.110Z,14.81
2023-11-07T19:05:01.337Z,14.74
2023-11-07T19:09:54.761Z,14.65
2023-11-07T19:14:47.834Z,14.58
2023-11-07T19:19:42.604Z,14.50
2023-11-07T19:24:35.718Z,14.44
2023-11-07T19:29:29.121Z,14.35
2023-11-07T19:34:24.087Z,14.26
2023-11-07T19:39:22.027Z,14.15
2023-11-07T19:44:16.844Z,14.09
2023-11-07T19:49:11.153Z,14.01
2023-11-07T19:54:04.784Z,13.92
2023-11-07T19:59:00.784Z,13.92
2023-11-07T20:03:55.176Z,13.86
2023-11-07T20:08:49.636Z,13.80
2023-11-07T20:13:42.650Z,13.75
2023-11-07T20:18:37.588Z,13.70
2023-11-07T20:23:33.448Z,13.64
2023-11-07T20:28:26.852Z,13.61
2023-11-07T20:33:22.206Z,13.53
2023-11-07T20:38:16.830Z,13.44
2023-11-07T20:43:10.583Z,13.36
2023-11-07T20:48:04.201Z,13.30
2023-11-07T20:52:57.516Z,13.22
2023-11-07T20:57:58.671Z,13.14
2023-11-07T21:02:57.354Z,13.08
2023-11-07T21:07:50.488Z,13.01
2023-11-07T21:12:43.742Z,12.95
2023-11-07T21:17:38.663Z,12.94
2023-11-07T21:22:31.796Z,12.96
2023-11-07T21:27:25.377Z,13.02
2023-11-07T21:32:18.577Z,13.06
2023-11-07T21:37:13.016Z,13.23
2023-11-07T21:42:06.838Z,13.57
2023-11-07T21:47:01.431Z,13.84
2023-11-07T21:51:54.451Z,13.81
2023-11-07T21:56:49.712Z,13.63
2023-11-07T22:01:42.839Z,13.53
2023-11-07T22:06:36.009Z,13.45
2023-11-07T22:11:29.098Z,13.40
2023-11-07T22:16:23.531Z,13.32
2023-11-07T22:21:16.915Z,13.22
2023-11-07T22:26:10.047Z,13.12
2023-11-07T22:31:03.085Z,13.06
2023-11-07T22:35:57.550Z,12.95
2023-11-07T22:40:51.054Z,12.89
2023-11-07T22:45:44.223Z,12.89
2023-11-07T22:50:37.333Z,12.87
2023-11-07T22:55:31.780Z,12.82
2023-11-07T23:00:32.298Z,12.74
2023-11-07T23:05:25.290Z,12.64
2023-11-07T23:10:18.313Z,12.62
2023-11-07T23:15:12.890Z,12.56
2023-11-07T23:20:07.909Z,12.52
2023-11-07T23:25:02.170Z,12.49
2023-11-07T23:29:57.456Z,12.47
2023-11-07T23:34:51.993Z,12.50
2023-11-07T23:39:44.964Z,12.49
2023-11-07T23:44:37.989Z,12.55
2023-11-07T23:49:31.759Z,12.58
2023-11-07T23:54:26.464Z,12.59
2023-11-07T23:59:19.570Z,12.53
